Time;durP1;ratioP1;P1;durP2;ratioP2;P2;SDS_P1;SDS_P2;PMS_P1;PMS_P2;Temp;Humidity;BMP_temperature;BMP_pressure;BME280_temperature;BME280_humidity;BME280_pressure;Samples;Min_cycle;Max_cycle;Signal;HPM_P1;HPM_P2
2023/08/09 00:00:49;;;;;;;2.42;0.90;;;15.10;56.20;;;;;;5056514;28;20046;-75
2023/08/09 00:03:15;;;;;;;3.60;1.02;;;15.10;55.50;;;;;;5056151;28;20040;-73
2023/08/09 00:05:41;;;;;;;3.63;0.90;;;15.00;55.00;;;;;;5047518;28;20043;-73
2023/08/09 00:08:07;;;;;;;3.13;1.00;;;15.10;54.50;;;;;;5072763;28;20409;-74
2023/08/09 00:10:34;;;;;;;2.97;1.08;;;15.00;53.90;;;;;;5041841;28;21099;-74
2023/08/09 00:13:00;;;;;;;5.13;1.00;;;15.00;54.20;;;;;;5048120;28;20050;-75
2023/08/09 00:15:26;;;;;;;2.92;1.02;;;15.00;55.40;;;;;;5046020;28;20120;-71
2023/08/09 00:17:51;;;;;;;2.83;1.08;;;15.00;56.90;;;;;;5038933;28;20131;-72
2023/08/09 00:20:20;;;;;;;3.00;1.00;;;15.00;58.30;;;;;;5074087;28;20058;-74
2023/08/09 00:22:47;;;;;;;1.90;0.90;;;15.00;58.80;;;;;;5057062;28;20538;-73
2023/08/09 00:25:13;;;;;;;2.33;1.00;;;15.00;57.80;;;;;;5054058;28;20048;-72
2023/08/09 00:27:40;;;;;;;4.15;1.10;;;15.00;57.80;;;;;;5040083;28;20040;-72
2023/08/09 00:30:13;;;;;;;1.95;0.93;;;15.00;57.50;;;;;;5056190;28;21916;-75
2023/08/09 00:32:40;;;;;;;7.10;1.17;;;15.00;56.70;;;;;;5057360;28;20077;-72
2023/08/09 00:35:07;;;;;;;2.17;0.80;;;15.00;55.00;;;;;;5055553;28;20050;-74
2023/08/09 00:37:32;;;;;;;2.88;1.08;;;15.00;54.10;;;;;;5055740;28;20117;-74
2023/08/09 00:39:59;;;;;;;6.57;1.13;;;15.00;54.40;;;;;;5046187;28;21213;-74
2023/08/09 00:42:25;;;;;;;1.63;0.90;;;15.10;55.70;;;;;;5058630;28;20055;-72
2023/08/09 00:44:51;;;;;;;3.75;1.15;;;15.00;56.20;;;;;;5040014;28;20044;-73
2023/08/09 00:47:19;;;;;;;5.35;1.15;;;15.00;56.60;;;;;;5043159;28;20055;-72
2023/08/09 00:49:45;;;;;;;4.70;1.10;;;15.00;56.70;;;;;;5055185;28;20070;-73
2023/08/09 00:52:11;;;;;;;2.88;0.98;;;15.00;57.00;;;;;;5059079;28;20044;-72
2023/08/09 00:54:39;;;;;;;2.78;0.95;;;15.00;57.60;;;;;;5074323;28;20376;-74
2023/08/09 00:57:09;;;;;;;3.28;1.10;;;15.00;58.70;;;;;;5055158;28;21190;-75
2023/08/09 00:59:35;;;;;;;3.58;1.17;;;15.00;60.50;;;;;;5041424;28;20086;-75
2023/08/09 01:02:01;;;;;;;3.95;1.00;;;15.00;61.80;;;;;;5056905;28;20040;-73
2023/08/09 01:04:27;;;;;;;4.47;1.10;;;14.90;62.30;;;;;;5011911;28;20039;-72
2023/08/09 01:07:37;;;;;;;3.95;1.20;;;14.90;62.40;;;;;;5052973;28;20670;-75
2023/08/09 01:10:12;;;;;;;3.70;1.00;;;14.90;63.20;;;;;;5015642;28;20059;-73
2023/08/09 01:12:42;;;;;;;4.20;1.38;;;14.90;63.70;;;;;;5053883;28;20040;-76
2023/08/09 01:15:11;;;;;;;2.80;1.00;;;14.90;64.30;;;;;;5041258;28;20059;-74
2023/08/09 01:17:40;;;;;;;3.95;1.63;;;14.80;64.90;;;;;;5054137;28;21849;-73
2023/08/09 01:20:11;;;;;;;3.08;1.00;;;14.80;65.50;;;;;;5038532;28;20101;-74
2023/08/09 01:22:44;;;;;;;2.80;0.90;;;14.90;65.70;;;;;;5053447;28;20768;-73
2023/08/09 01:25:10;;;;;;;3.50;0.95;;;14.80;66.10;;;;;;5044554;28;20517;-75
2023/08/09 01:27:36;;;;;;;2.38;0.80;;;14.80;66.30;;;;;;5038745;28;20063;-72
2023/08/09 01:30:04;;;;;;;3.85;1.15;;;14.80;66.30;;;;;;5043716;28;20134;-73
2023/08/09 01:32:31;;;;;;;3.30;0.95;;;14.80;66.50;;;;;;5028553;28;20259;-77
2023/08/09 01:34:58;;;;;;;2.90;0.98;;;14.90;66.70;;;;;;5060577;28;20181;-74
2023/08/09 01:37:27;;;;;;;3.60;1.13;;;14.90;66.80;;;;;;5053900;28;20159;-74
2023/08/09 01:39:57;;;;;;;2.45;0.90;;;14.90;66.70;;;;;;5056501;28;20498;-76
2023/08/09 01:42:23;;;;;;;4.32;1.00;;;14.90;66.70;;;;;;5043673;28;20047;-73
2023/08/09 01:44:50;;;;;;;4.30;0.90;;;14.80;66.40;;;;;;5052202;28;20246;-74
2023/08/09 01:47:17;;;;;;;3.75;1.02;;;14.90;66.20;;;;;;5051864;28;20122;-73
2023/08/09 01:49:47;;;;;;;3.00;0.95;;;14.90;65.70;;;;;;5056086;28;20166;-75
2023/08/09 01:52:14;;;;;;;2.72;0.82;;;14.90;65.40;;;;;;5038037;28;20119;-72
2023/08/09 01:54:40;;;;;;;3.90;1.10;;;14.90;64.90;;;;;;5043858;28;20404;-73
2023/08/09 01:57:06;;;;;;;3.03;0.90;;;14.90;64.60;;;;;;5056119;28;20083;-73
2023/08/09 01:59:32;;;;;;;2.25;0.95;;;14.80;64.20;;;;;;5041134;28;20135;-74
2023/08/09 02:01:58;;;;;;;2.30;0.88;;;14.80;64.00;;;;;;5043657;28;20055;-72
2023/08/09 02:04:24;;;;;;;2.65;0.88;;;14.90;64.00;;;;;;5040076;28;20047;-75
2023/08/09 02:06:49;;;;;;;2.60;1.00;;;14.50;64.10;;;;;;5048933;28;21038;-73
2023/08/09 02:09:15;;;;;;;3.75;0.82;;;14.80;64.60;;;;;;5044224;28;20047;-74
2023/08/09 02:11:41;;;;;;;4.75;1.08;;;14.90;65.00;;;;;;5042444;28;20100;-72
2023/08/09 02:14:07;;;;;;;3.08;1.00;;;14.80;64.90;;;;;;5041227;28;20056;-72
2023/08/09 02:16:33;;;;;;;3.13;1.20;;;14.80;64.70;;;;;;5053084;28;20130;-73
2023/08/09 02:19:00;;;;;;;2.67;1.02;;;14.80;64.50;;;;;;5055208;28;20062;-72
2023/08/09 02:21:26;;;;;;;4.43;1.15;;;14.80;64.60;;;;;;5044261;28;21037;-75
2023/08/09 02:23:52;;;;;;;4.07;1.02;;;15.00;64.90;;;;;;5036677;28;21221;-72
2023/08/09 02:26:18;;;;;;;2.75;1.00;;;14.80;65.20;;;;;;5038799;28;20494;-73
2023/08/09 02:28:45;;;;;;;2.88;1.00;;;14.80;65.80;;;;;;5056302;28;20058;-73
2023/08/09 02:31:11;;;;;;;2.20;0.90;;;14.80;66.30;;;;;;5058983;28;20478;-73
2023/08/09 02:33:37;;;;;;;2.05;0.82;;;14.80;66.30;;;;;;5059042;28;20111;-76
2023/08/09 02:36:04;;;;;;;4.25;1.00;;;14.80;66.20;;;;;;5044899;28;20540;-73
2023/08/09 02:38:34;;;;;;;2.80;0.80;;;14.80;65.30;;;;;;5057658;28;20077;-74
2023/08/09 02:41:00;;;;;;;4.43;1.10;;;14.80;64.40;;;;;;5057740;28;20043;-77
2023/08/09 02:43:26;;;;;;;1.70;0.90;;;14.80;63.90;;;;;;5049396;28;20127;-74
2023/08/09 02:45:56;;;;;;;1.88;0.90;;;14.80;64.20;;;;;;5058479;28;20040;-73
2023/08/09 02:48:22;;;;;;;1.63;0.85;;;14.80;64.70;;;;;;5058479;28;20072;-73
2023/08/09 02:50:49;;;;;;;1.98;0.75;;;14.80;64.90;;;;;;5044790;28;20044;-75
2023/08/09 02:53:16;;;;;;;3.78;0.80;;;14.80;63.80;;;;;;5057383;28;20137;-73
2023/08/09 02:55:43;;;;;;;2.22;0.95;;;14.80;63.70;;;;;;5060538;28;20167;-73
2023/08/09 02:58:09;;;;;;;3.13;1.00;;;14.80;64.20;;;;;;5040339;28;20564;-76
2023/08/09 03:00:38;;;;;;;2.72;0.90;;;14.80;64.70;;;;;;5059127;28;20059;-76
2023/08/09 03:03:04;;;;;;;4.47;1.05;;;14.80;65.10;;;;;;5030156;28;20075;-76
2023/08/09 03:05:30;;;;;;;2.20;0.88;;;14.80;65.70;;;;;;5059909;28;20051;-73
2023/08/09 03:07:56;;;;;;;4.43;1.10;;;14.80;66.60;;;;;;5062346;28;20051;-74
2023/08/09 03:10:23;;;;;;;3.10;1.10;;;14.90;67.80;;;;;;5057490;28;20391;-75
2023/08/09 03:12:49;;;;;;;4.80;1.08;;;14.90;68.20;;;;;;5039033;28;20391;-72
2023/08/09 03:15:16;;;;;;;4.70;1.17;;;14.90;68.50;;;;;;5060846;28;20040;-73
2023/08/09 03:17:42;;;;;;;2.20;0.90;;;14.90;69.00;;;;;;5058509;28;20079;-73
2023/08/09 03:20:14;;;;;;;5.15;1.10;;;14.90;69.30;;;;;;5057640;28;20950;-75
2023/08/09 03:22:48;;;;;;;2.42;1.02;;;14.90;69.30;;;;;;5042354;28;20047;-73
2023/08/09 03:25:15;;;;;;;3.10;0.95;;;14.90;69.50;;;;;;5063135;28;20078;-74
2023/08/09 03:27:41;;;;;;;3.40;1.17;;;14.90;69.50;;;;;;5066213;28;20078;-72
2023/08/09 03:30:08;;;;;;;2.50;0.80;;;14.90;69.30;;;;;;5043589;28;20539;-75
2023/08/09 03:32:35;;;;;;;3.25;0.98;;;14.90;68.90;;;;;;5040929;28;20052;-76
2023/08/09 03:35:01;;;;;;;2.42;0.90;;;14.80;68.80;;;;;;5045416;28;20040;-76
2023/08/09 03:37:27;;;;;;;3.83;0.82;;;14.80;68.60;;;;;;5058208;28;20040;-72
2023/08/09 03:39:53;;;;;;;6.55;1.20;;;14.80;68.40;;;;;;5058526;28;20051;-72
2023/08/09 03:42:19;;;;;;;5.88;1.35;;;14.90;68.40;;;;;;5057033;28;20042;-74
2023/08/09 03:44:44;;;;;;;6.82;1.20;;;14.90;68.50;;;;;;5050152;28;21253;-75
2023/08/09 03:47:10;;;;;;;3.90;1.00;;;14.90;68.90;;;;;;5045437;28;20040;-73
2023/08/09 03:49:36;;;;;;;4.45;1.10;;;14.90;69.30;;;;;;5026610;28;20051;-74
2023/08/09 03:52:02;;;;;;;5.18;0.98;;;14.80;70.00;;;;;;5047360;28;20052;-74
2023/08/09 03:54:29;;;;;;;3.55;0.95;;;14.80;70.50;;;;;;5057349;28;20093;-72
2023/08/09 03:56:55;;;;;;;2.25;1.10;;;14.80;71.20;;;;;;5056270;28;20043;-72
2023/08/09 03:59:20;;;;;;;4.70;1.08;;;14.80;71.70;;;;;;5045979;28;20406;-75
2023/08/09 04:01:46;;;;;;;6.47;1.10;;;14.80;72.00;;;;;;5044862;28;20051;-73
2023/08/09 04:04:12;;;;;;;1.98;0.90;;;14.80;72.40;;;;;;5058561;28;20826;-75
2023/08/09 04:06:38;;;;;;;4.30;1.20;;;14.80;72.70;;;;;;5055595;28;20059;-74
2023/08/09 04:09:04;;;;;;;3.85;1.40;;;14.80;73.10;;;;;;5041916;28;20059;-75
2023/08/09 04:11:30;;;;;;;3.97;1.00;;;14.80;73.50;;;;;;5055015;28;20131;-75
2023/08/09 04:13:55;;;;;;;2.50;1.08;;;14.80;73.60;;;;;;5041114;28;20050;-75
2023/08/09 04:16:21;;;;;;;1.95;0.88;;;14.80;74.30;;;;;;5028124;28;20039;-72
2023/08/09 04:18:49;;;;;;;3.03;1.10;;;14.90;75.00;;;;;;5041607;28;20381;-75
2023/08/09 04:21:15;;;;;;;4.65;1.13;;;14.90;75.70;;;;;;5043045;28;20483;-74
2023/08/09 04:23:41;;;;;;;2.65;0.90;;;14.90;76.20;;;;;;5054274;28;20447;-73
2023/08/09 04:26:06;;;;;;;4.47;1.00;;;15.00;76.90;;;;;;5055135;28;20121;-71
2023/08/09 04:28:32;;;;;;;3.03;1.02;;;15.00;76.90;;;;;;5044624;28;20051;-72
2023/08/09 04:30:58;;;;;;;3.10;1.13;;;15.00;77.40;;;;;;5054538;28;20299;-72
2023/08/09 04:33:24;;;;;;;3.03;0.90;;;15.00;77.70;;;;;;5028453;28;20060;-73
2023/08/09 04:35:49;;;;;;;2.55;1.20;;;15.00;77.90;;;;;;5029034;28;20040;-72
2023/08/09 04:38:15;;;;;;;4.60;1.20;;;15.00;78.20;;;;;;5057187;28;20044;-72
2023/08/09 04:40:41;;;;;;;2.05;0.90;;;15.00;78.50;;;;;;5060709;28;20509;-71
2023/08/09 04:43:07;;;;;;;3.88;0.88;;;15.00;79.10;;;;;;5043522;28;20829;-74
2023/08/09 04:45:33;;;;;;;3.47;1.10;;;15.00;79.10;;;;;;5038566;28;20051;-72
2023/08/09 04:48:01;;;;;;;3.50;1.10;;;15.00;79.20;;;;;;5046519;28;20567;-72
2023/08/09 04:50:27;;;;;;;3.05;1.10;;;15.00;79.40;;;;;;5077741;28;20115;-72
2023/08/09 04:52:54;;;;;;;4.65;1.08;;;15.10;79.50;;;;;;5044355;28;20052;-75
2023/08/09 04:55:20;;;;;;;2.80;1.20;;;15.10;79.50;;;;;;5077778;28;20091;-74
2023/08/09 04:57:46;;;;;;;4.70;1.30;;;15.10;79.40;;;;;;5034876;28;20130;-71
2023/08/09 05:00:13;;;;;;;3.72;1.08;;;15.10;79.40;;;;;;5038137;28;20040;-73
2023/08/09 05:02:39;;;;;;;2.40;0.93;;;15.20;79.40;;;;;;5052919;28;20051;-75
2023/08/09 05:05:06;;;;;;;4.53;1.60;;;15.20;79.70;;;;;;5058588;28;20062;-72
2023/08/09 05:07:33;;;;;;;2.38;0.90;;;15.30;79.80;;;;;;5038800;28;20478;-72
2023/08/09 05:10:00;;;;;;;3.22;1.00;;;15.30;80.00;;;;;;5066420;28;20044;-75
2023/08/09 05:12:26;;;;;;;2.28;0.93;;;15.30;80.00;;;;;;5050403;28;20433;-74
2023/08/09 05:14:51;;;;;;;2.97;1.00;;;15.30;79.80;;;;;;5048564;28;20101;-75
2023/08/09 05:17:17;;;;;;;2.13;1.00;;;15.40;79.50;;;;;;5061530;28;20067;-75
2023/08/09 05:19:44;;;;;;;3.38;1.30;;;15.40;79.40;;;;;;5048864;28;20076;-73
2023/08/09 05:22:10;;;;;;;3.67;1.25;;;15.40;79.50;;;;;;5061864;28;20058;-73
2023/08/09 05:24:35;;;;;;;3.10;0.98;;;15.40;79.70;;;;;;5059512;28;20043;-73
2023/08/09 05:27:01;;;;;;;3.60;1.20;;;16.20;80.20;;;;;;5063634;28;20044;-74
2023/08/09 05:29:27;;;;;;;1.60;0.93;;;15.50;80.00;;;;;;5052213;28;20135;-73
2023/08/09 05:31:53;;;;;;;6.00;1.60;;;15.50;80.20;;;;;;5016353;28;20056;-72
2023/08/09 05:34:19;;;;;;;4.07;1.08;;;15.60;80.20;;;;;;5049706;28;21255;-76
2023/08/09 05:36:45;;;;;;;7.40;1.85;;;15.60;80.30;;;;;;5055441;28;20040;-76
2023/08/09 05:39:12;;;;;;;4.22;1.17;;;15.60;80.10;;;;;;5032192;28;20615;-74
2023/08/09 05:41:41;;;;;;;3.20;1.10;;;15.60;80.00;;;;;;5057394;28;20137;-74
2023/08/09 05:44:07;;;;;;;2.78;0.95;;;15.70;80.30;;;;;;5062233;28;21868;-75
2023/08/09 05:46:33;;;;;;;2.90;0.90;;;15.70;80.20;;;;;;5076164;28;20048;-75
2023/08/09 05:48:59;;;;;;;2.03;0.88;;;15.80;80.20;;;;;;5045087;28;20044;-72
2023/08/09 05:51:25;;;;;;;3.10;1.23;;;15.80;80.40;;;;;;5062557;28;20414;-76
2023/08/09 05:53:51;;;;;;;3.38;1.52;;;15.90;80.90;;;;;;5059973;28;20170;-73
2023/08/09 05:56:18;;;;;;;4.05;1.20;;;16.00;81.10;;;;;;5058828;28;20045;-73
2023/08/09 05:58:43;;;;;;;3.83;0.98;;;16.00;81.30;;;;;;5057621;28;20101;-75
2023/08/09 06:01:12;;;;;;;3.05;1.85;;;16.00;81.60;;;;;;5056379;28;20048;-73
2023/08/09 06:03:39;;;;;;;3.80;1.10;;;16.10;81.80;;;;;;5056902;28;20071;-73
2023/08/09 06:06:07;;;;;;;4.20;1.10;;;16.10;82.20;;;;;;5047461;28;20086;-74
2023/08/09 06:08:39;;;;;;;1.92;1.00;;;16.20;82.50;;;;;;5054581;28;20046;-73
2023/08/09 06:11:05;;;;;;;3.58;1.40;;;16.30;82.80;;;;;;5058791;28;20643;-76
2023/08/09 06:13:31;;;;;;;3.58;1.13;;;16.30;83.10;;;;;;5055787;28;20176;-75
2023/08/09 06:15:58;;;;;;;5.70;1.13;;;16.40;83.20;;;;;;5060196;28;20048;-73
2023/08/09 06:18:23;;;;;;;2.95;1.33;;;16.40;83.00;;;;;;5065005;28;20207;-73
2023/08/09 06:20:49;;;;;;;3.88;1.02;;;16.50;82.90;;;;;;5062424;28;20384;-73
2023/08/09 06:23:16;;;;;;;5.43;1.10;;;16.50;82.50;;;;;;5074453;28;21508;-76
2023/08/09 06:25:41;;;;;;;2.53;1.00;;;16.60;82.40;;;;;;5039022;28;20047;-76
2023/08/09 06:28:08;;;;;;;2.33;0.90;;;16.60;82.10;;;;;;5054901;28;20051;-73
2023/08/09 06:30:34;;;;;;;4.13;1.00;;;16.70;81.80;;;;;;5069475;28;20123;-76
2023/08/09 06:33:01;;;;;;;4.15;1.10;;;16.80;81.70;;;;;;5066989;28;20468;-76
2023/08/09 06:35:30;;;;;;;2.05;1.00;;;16.90;81.70;;;;;;5056613;28;20048;-74
2023/08/09 06:37:56;;;;;;;5.55;1.30;;;17.00;81.40;;;;;;5068705;28;20044;-75
2023/08/09 06:40:22;;;;;;;4.50;1.23;;;17.00;80.90;;;;;;5066076;28;20089;-76
2023/08/09 06:42:48;;;;;;;3.67;1.10;;;17.10;80.20;;;;;;5061431;28;20047;-76
2023/08/09 06:45:14;;;;;;;2.42;1.00;;;17.20;79.50;;;;;;5041480;28;20398;-76
2023/08/09 06:47:40;;;;;;;3.72;1.00;;;17.30;78.70;;;;;;5056702;28;20167;-74
2023/08/09 06:50:06;;;;;;;6.30;1.40;;;17.40;78.10;;;;;;5064576;28;20040;-74
2023/08/09 06:52:33;;;;;;;4.63;1.27;;;17.40;77.50;;;;;;5056981;28;20060;-76
2023/08/09 06:55:00;;;;;;;4.28;1.15;;;17.60;76.60;;;;;;5072387;28;20136;-77
2023/08/09 06:57:27;;;;;;;6.32;1.30;;;17.60;75.50;;;;;;5088332;28;20514;-74
2023/08/09 06:59:53;;;;;;;2.45;1.00;;;17.60;74.70;;;;;;5069600;28;20052;-75
2023/08/09 07:02:20;;;;;;;2.67;1.05;;;17.70;74.20;;;;;;5065669;28;20047;-76
2023/08/09 07:04:49;;;;;;;2.80;1.23;;;17.80;72.90;;;;;;5031619;28;20478;-76
2023/08/09 07:07:15;;;;;;;3.42;1.15;;;17.80;71.00;;;;;;5057205;28;20035;-75
2023/08/09 07:09:42;;;;;;;2.45;1.00;;;17.90;70.00;;;;;;5056235;28;20341;-74
2023/08/09 07:12:07;;;;;;;3.22;1.15;;;18.00;69.40;;;;;;5086307;28;20051;-75
2023/08/09 07:14:33;;;;;;;2.53;1.13;;;18.10;69.40;;;;;;5067260;28;20097;-75
2023/08/09 07:16:59;;;;;;;5.18;1.15;;;18.10;68.80;;;;;;5062127;28;20120;-74
2023/08/09 07:19:25;;;;;;;2.22;0.98;;;18.20;67.90;;;;;;5025262;28;20040;-75
2023/08/09 07:21:52;;;;;;;3.78;1.00;;;18.30;66.90;;;;;;5041035;28;20079;-77
2023/08/09 07:24:17;;;;;;;3.55;1.02;;;18.40;65.90;;;;;;5026970;28;20044;-77
2023/08/09 07:26:43;;;;;;;4.95;1.42;;;18.50;65.40;;;;;;5038027;28;20066;-75
2023/08/09 07:29:09;;;;;;;4.50;1.10;;;18.60;64.40;;;;;;5051798;28;20059;-75
2023/08/09 07:31:35;;;;;;;4.80;1.30;;;18.70;63.30;;;;;;5069524;28;20441;-77
2023/08/09 07:34:01;;;;;;;3.65;1.40;;;18.80;62.90;;;;;;5064688;28;20048;-75
2023/08/09 07:36:27;;;;;;;3.83;1.00;;;18.90;62.40;;;;;;5053447;28;20211;-75
2023/08/09 07:38:53;;;;;;;3.85;1.38;;;18.90;59.80;;;;;;5049850;28;20130;-77
2023/08/09 07:41:19;;;;;;;3.88;1.15;;;19.00;58.40;;;;;;5065879;28;20215;-75
2023/08/09 07:43:45;;;;;;;4.80;1.27;;;19.10;58.10;;;;;;5060778;28;20511;-76
2023/08/09 07:46:11;;;;;;;6.15;1.23;;;19.20;57.50;;;;;;5056764;28;20136;-75
2023/08/09 07:48:37;;;;;;;6.90;1.30;;;19.20;55.70;;;;;;5049478;28;20054;-74
2023/08/09 07:51:03;;;;;;;3.97;1.15;;;19.40;53.70;;;;;;5085764;28;20051;-76
2023/08/09 07:53:28;;;;;;;2.42;1.05;;;19.50;51.20;;;;;;5049354;28;21264;-75
2023/08/09 07:55:54;;;;;;;4.28;1.20;;;19.60;50.00;;;;;;5035408;28;20112;-75
2023/08/09 07:58:21;;;;;;;7.60;1.20;;;19.50;48.60;;;;;;5053012;28;20047;-75
2023/08/09 08:00:46;;;;;;;2.58;1.27;;;19.70;47.30;;;;;;5054957;28;20062;-77
2023/08/09 08:03:13;;;;;;;3.28;1.02;;;19.70;46.80;;;;;;5051522;28;20399;-73
2023/08/09 08:05:39;;;;;;;4.20;1.20;;;19.80;44.30;;;;;;5052630;28;20059;-78
2023/08/09 08:08:04;;;;;;;2.03;1.10;;;19.90;41.20;;;;;;5055806;28;20054;-76
2023/08/09 08:10:31;;;;;;;3.08;1.10;;;20.10;38.00;;;;;;5047560;28;20452;-75
2023/08/09 08:12:57;;;;;;;3.15;1.00;;;20.20;35.30;;;;;;5035877;28;20039;-74
2023/08/09 08:15:23;;;;;;;5.03;1.20;;;20.30;33.40;;;;;;5066956;28;20087;-77
2023/08/09 08:17:51;;;;;;;2.20;0.90;;;20.40;31.60;;;;;;5053955;28;20104;-76
2023/08/09 08:20:21;;;;;;;2.75;1.00;;;20.40;30.00;;;;;;5075379;28;20062;-77
2023/08/09 08:22:49;;;;;;;3.85;1.20;;;20.40;28.10;;;;;;5066095;28;20125;-76
2023/08/09 08:25:16;;;;;;;6.22;1.13;;;20.50;28.50;;;;;;5064886;28;20100;-74
2023/08/09 08:27:45;;;;;;;2.85;1.10;;;20.60;27.80;;;;;;5056422;28;20052;-75
2023/08/09 08:30:13;;;;;;;2.42;1.00;;;20.80;27.00;;;;;;5061431;28;20114;-76
2023/08/09 08:32:39;;;;;;;1.80;0.90;;;21.10;26.90;;;;;;5077370;28;20051;-74
2023/08/09 08:35:10;;;;;;;3.10;1.02;;;21.20;23.50;;;;;;5070427;28;20044;-75
2023/08/09 08:37:38;;;;;;;2.67;0.93;;;21.40;21.00;;;;;;5064108;28;20081;-75
2023/08/09 08:40:09;;;;;;;4.00;1.30;;;21.50;20.20;;;;;;5071607;28;20058;-77
2023/08/09 08:42:36;;;;;;;2.75;1.13;;;21.60;19.80;;;;;;5074549;28;20498;-75
2023/08/09 08:45:09;;;;;;;2.90;0.90;;;21.70;17.50;;;;;;5064192;28;20052;-75
2023/08/09 08:47:39;;;;;;;3.45;0.98;;;21.70;15.20;;;;;;5049334;28;20075;-76
2023/08/09 08:50:06;;;;;;;3.85;1.13;;;21.70;14.00;;;;;;5060882;28;20100;-76
2023/08/09 08:52:36;;;;;;;3.05;1.00;;;21.70;12.20;;;;;;5044564;28;20040;-75
2023/08/09 08:55:05;;;;;;;2.45;0.98;;;21.90;10.60;;;;;;5061374;28;20044;-75
2023/08/09 08:57:32;;;;;;;3.30;1.08;;;21.80;9.00;;;;;;5079327;28;20052;-77
2023/08/09 08:59:58;;;;;;;5.63;1.13;;;21.60;6.00;;;;;;5057934;28;20079;-75
2023/08/09 09:02:24;;;;;;;2.75;0.90;;;21.50;6.80;;;;;;5059969;28;20088;-75
2023/08/09 09:04:49;;;;;;;2.33;1.00;;;21.30;3.00;;;;;;5076655;28;20044;-74
2023/08/09 09:07:15;;;;;;;3.08;0.93;;;21.30;6.30;;;;;;5060306;28;20100;-76
2023/08/09 09:09:59;;;;;;;1.83;0.90;;;21.40;4.90;;;;;;5047391;28;20040;-75
2023/08/09 09:12:26;;;;;;;2.20;0.88;;;21.60;1.00;;;;;;5064842;28;20048;-77
2023/08/09 09:14:52;;;;;;;3.97;1.00;;;21.60;1.00;;;;;;5062929;28;20051;-75
2023/08/09 09:17:22;;;;;;;1.58;0.82;;;21.70;1.00;;;;;;5073169;28;20604;-78
2023/08/09 09:19:48;;;;;;;1.70;0.80;;;21.90;1.00;;;;;;5068555;28;20487;-77
2023/08/09 09:22:34;;;;;;;3.55;0.95;;;21.90;1.00;;;;;;5052090;28;20058;-76
2023/08/09 09:25:00;;;;;;;2.75;1.20;;;21.90;1.00;;;;;;5064133;28;20043;-76
2023/08/09 09:27:31;;;;;;;2.90;1.00;;;22.00;1.00;;;;;;5070700;28;20052;-77
2023/08/09 09:30:12;;;;;;;1.90;0.90;;;22.20;1.00;;;;;;5035177;28;20043;-78
2023/08/09 09:32:42;;;;;;;2.83;1.02;;;22.40;1.00;;;;;;5057869;28;20127;-75
2023/08/09 09:35:08;;;;;;;4.40;0.98;;;22.40;1.00;;;;;;5051353;28;20062;-75
2023/08/09 09:37:35;;;;;;;1.92;1.17;;;22.50;1.00;;;;;;5028995;28;20051;-77
2023/08/09 09:40:01;;;;;;;2.80;1.20;;;22.60;1.00;;;;;;5049558;28;20056;-76
2023/08/09 09:42:33;;;;;;;2.00;0.90;;;22.60;1.00;;;;;;5052459;28;20098;-74
2023/08/09 09:45:22;;;;;;;2.85;1.08;;;22.50;1.00;;;;;;5042747;28;20044;-75
2023/08/09 09:47:48;;;;;;;2.78;1.10;;;22.40;1.00;;;;;;5054374;28;20042;-77
2023/08/09 09:50:14;;;;;;;3.75;1.20;;;22.20;1.00;;;;;;5071989;28;20513;-75
2023/08/09 09:52:41;;;;;;;1.95;1.10;;;22.20;1.00;;;;;;5063505;28;20138;-75
2023/08/09 09:55:07;;;;;;;3.75;1.08;;;22.20;1.00;;;;;;5083368;28;20163;-75
2023/08/09 09:57:33;;;;;;;3.20;1.10;;;22.10;1.00;;;;;;5042103;28;20136;-76
2023/08/09 10:00:00;;;;;;;4.05;1.25;;;21.90;1.00;;;;;;5072991;28;20121;-74
2023/08/09 10:02:39;;;;;;;3.58;1.00;;;21.90;1.00;;;;;;5061002;28;20075;-74
2023/08/09 10:05:11;;;;;;;2.92;1.40;;;22.00;3.90;;;;;;5069223;28;20517;-76
2023/08/09 10:07:38;;;;;;;2.08;1.20;;;22.00;7.30;;;;;;5057445;28;20052;-75
2023/08/09 10:10:04;;;;;;;7.50;1.30;;;21.90;7.80;;;;;;5063108;28;20052;-76
2023/08/09 10:12:31;;;;;;;4.32;0.98;;;21.90;9.80;;;;;;5053541;28;20108;-76
2023/08/09 10:14:58;;;;;;;3.90;1.38;;;21.90;13.00;;;;;;5061046;28;20109;-77
2023/08/09 10:17:27;;;;;;;2.63;1.23;;;21.80;13.80;;;;;;5057992;28;20056;-78
2023/08/09 10:19:54;;;;;;;2.28;1.27;;;21.90;16.20;;;;;;5052338;28;20079;-77
2023/08/09 10:22:21;;;;;;;3.05;1.27;;;22.00;16.90;;;;;;5065254;28;20047;-74
2023/08/09 10:24:50;;;;;;;3.70;1.40;;;22.10;18.80;;;;;;5062784;28;20047;-78
2023/08/09 10:27:53;;;;;;;3.78;1.35;;;22.00;20.50;;;;;;5057565;28;20048;-76
2023/08/09 10:30:28;;;;;;;4.00;1.25;;;21.90;23.80;;;;;;5065325;28;20451;-75
2023/08/09 10:32:57;;;;;;;2.95;1.23;;;22.10;27.10;;;;;;5072338;28;20062;-76
2023/08/09 10:35:55;;;;;;;4.32;1.55;;;22.10;26.40;;;;;;5077669;28;20811;-75
2023/08/09 10:38:38;;;;;;;5.10;1.30;;;22.50;24.90;;;;;;5042903;28;20521;-75
2023/08/09 10:41:09;;;;;;;5.07;1.40;;;22.70;22.00;;;;;;5084960;28;20862;-78
2023/08/09 10:43:35;;;;;;;3.42;1.23;;;23.00;15.50;;;;;;5071802;28;20052;-78
2023/08/09 10:46:23;;;;;;;5.72;1.20;;;23.20;8.20;;;;;;5069755;28;20063;-75
2023/08/09 10:48:51;;;;;;;3.83;1.30;;;23.20;1.00;;;;;;5063028;28;20499;-77
2023/08/09 10:51:19;;;;;;;4.20;1.13;;;23.30;3.20;;;;;;5067424;28;20398;-79
2023/08/09 10:53:58;;;;;;;4.10;1.35;;;23.40;1.00;;;;;;5066759;28;20042;-75
2023/08/09 10:56:40;;;;;;;5.28;1.38;;;23.40;1.00;;;;;;5065537;28;20063;-75
2023/08/09 10:59:25;;;;;;;3.63;1.38;;;23.40;1.00;;;;;;5050483;28;20181;-76
2023/08/09 11:01:53;;;;;;;5.68;1.40;;;23.70;1.00;;;;;;5052712;28;20072;-77
2023/08/09 11:04:18;;;;;;;4.63;1.95;;;23.80;1.00;;;;;;5040724;28;20071;-76
2023/08/09 11:06:49;;;;;;;4.43;1.40;;;24.00;1.00;;;;;;5068166;28;20131;-77
2023/08/09 11:09:17;;;;;;;4.93;1.60;;;23.90;1.00;;;;;;5072750;28;20048;-77
2023/08/09 11:11:45;;;;;;;6.75;1.60;;;23.80;1.00;;;;;;5070668;28;20071;-77
2023/08/09 11:14:13;;;;;;;5.95;1.70;;;23.50;1.00;;;;;;5053188;28;20101;-76
2023/08/09 11:16:39;;;;;;;6.50;1.73;;;23.40;1.00;;;;;;5068580;28;20126;-76
2023/08/09 11:19:09;;;;;;;5.68;1.70;;;23.40;1.00;;;;;;5087149;28;20055;-77
2023/08/09 11:21:52;;;;;;;7.07;1.70;;;23.30;1.00;;;;;;5069429;28;20052;-77
2023/08/09 11:24:21;;;;;;;6.45;1.55;;;23.10;1.00;;;;;;5072399;28;20047;-78
2023/08/09 11:26:54;;;;;;;5.00;1.45;;;22.80;1.00;;;;;;5058939;28;20040;-77
2023/08/09 11:29:22;;;;;;;3.60;1.70;;;22.80;1.00;;;;;;5055153;28;20047;-76
2023/08/09 11:31:50;;;;;;;6.18;1.45;;;22.60;1.00;;;;;;5049642;28;20628;-79
2023/08/09 11:34:19;;;;;;;6.18;1.65;;;22.70;1.00;;;;;;5049073;28;20056;-78
2023/08/09 11:36:47;;;;;;;6.10;1.60;;;22.80;1.00;;;;;;5067538;28;20054;-77
2023/08/09 11:39:13;;;;;;;6.18;1.65;;;23.10;1.00;;;;;;5065900;28;20047;-76
2023/08/09 11:41:50;;;;;;;5.18;1.40;;;23.20;1.00;;;;;;5054185;28;20040;-75
2023/08/09 11:44:20;;;;;;;6.07;1.40;;;23.30;1.00;;;;;;5063215;28;20051;-76
2023/08/09 11:46:46;;;;;;;6.55;1.83;;;23.60;1.00;;;;;;5047461;28;20044;-79
2023/08/09 11:49:12;;;;;;;7.40;1.73;;;23.60;1.00;;;;;;5047614;28;20043;-76
2023/08/09 11:51:37;;;;;;;4.80;1.50;;;23.90;1.00;;;;;;5062232;28;20047;-76
2023/08/09 11:54:07;;;;;;;5.18;1.75;;;24.20;1.00;;;;;;5045761;28;20082;-75
2023/08/09 11:56:35;;;;;;;6.53;1.42;;;24.70;1.00;;;;;;5050508;28;20055;-76
2023/08/09 11:59:03;;;;;;;5.28;1.55;;;24.90;1.00;;;;;;5046358;28;20100;-79
2023/08/09 12:01:38;;;;;;;6.82;1.85;;;25.00;1.00;;;;;;5062295;28;20161;-78
2023/08/09 12:04:14;;;;;;;6.22;1.48;;;24.80;1.00;;;;;;5030556;28;20121;-78
2023/08/09 12:06:45;;;;;;;5.53;1.40;;;24.90;1.00;;;;;;5046539;28;20047;-77
2023/08/09 12:09:25;;;;;;;3.97;1.40;;;25.00;1.00;;;;;;5064007;28;20397;-76
2023/08/09 12:11:51;;;;;;;5.65;1.45;;;25.10;1.00;;;;;;5051090;28;20036;-74
2023/08/09 12:14:17;;;;;;;5.50;1.90;;;25.10;1.00;;;;;;5034512;28;20100;-78
2023/08/09 12:16:43;;;;;;;5.63;1.33;;;25.40;1.00;;;;;;5058195;28;20048;-76
2023/08/09 12:19:08;;;;;;;8.40;1.70;;;25.60;1.00;;;;;;5052673;28;20438;-75
2023/08/09 12:21:34;;;;;;;3.28;1.25;;;25.60;1.00;;;;;;5043582;28;20105;-78
2023/08/09 12:24:00;;;;;;;3.25;1.25;;;25.80;1.00;;;;;;5046938;28;20387;-76
2023/08/09 12:26:28;;;;;;;3.85;1.20;;;25.80;99.90;;;;;;5050168;28;20089;-78
2023/08/09 12:28:54;;;;;;;7.05;1.60;;;25.80;99.90;;;;;;5055666;28;21017;-75
2023/08/09 12:31:20;;;;;;;4.50;1.38;;;26.10;99.90;;;;;;5065236;28;20039;-77
2023/08/09 12:33:46;;;;;;;5.28;1.38;;;26.20;99.90;;;;;;5050026;28;20410;-75
2023/08/09 12:36:12;;;;;;;4.65;1.50;;;26.20;99.90;;;;;;5043685;28;20051;-75
2023/08/09 12:38:38;;;;;;;7.07;1.52;;;26.20;99.90;;;;;;5068526;28;20039;-76
2023/08/09 12:41:04;;;;;;;5.55;1.63;;;26.30;99.90;;;;;;5064367;28;20086;-77
2023/08/09 12:43:30;;;;;;;6.40;1.65;;;26.30;99.90;;;;;;5055408;28;20642;-76
2023/08/09 12:45:56;;;;;;;5.18;1.38;;;26.40;88.60;;;;;;5041684;28;20498;-79
2023/08/09 12:48:22;;;;;;;6.70;1.50;;;26.40;77.50;;;;;;5053567;28;20050;-76
2023/08/09 12:50:47;;;;;;;5.63;1.60;;;26.40;1.00;;;;;;5051927;28;20143;-75